Niagara, North Dakota
Current Conditions -  °F | °C
As of 9:58 PM on Saturday 25 Oct 2014 (Local Time) from KRDR Reporting Station
Clear Clear  
Wind Chill: 33°   Ceiling: Unl
Heat Index: 37°   Visibility: 10mi
Dew Point: 26°   Wind: 5mph
Humidity: 63%   Direction: 250°WSW
Pressure: 30"   Gusts: NA
Location:  48°N, 97.87°W
Report Text: KRDR 260258Z AUTO 25004KT 10SM CLR 03/M04 A3000 RMK AO2 SLP171 T00281036 57009
Loading
Personal Weather Stations






























Interactive Weather Map
Tropical Storm Tracking
New forecast layout! Learn more

10-Day Weather Forecast

Advertisements
Track Severe Weather on mobile